sensor_id;sensor_type;location;lat;lon;timestamp;pressure;altitude;pressure_sealevel;temperature;humidity
46174;BME280;31897;52.420;13.498;2023-01-25T00:01:45;103500;;;1.16067;32.59727
46174;BME280;31897;52.420;13.498;2023-01-25T00:04:46;103500;;;1.22043;32.50409
46174;BME280;31897;52.420;13.498;2023-01-25T00:07:47;103500;;;1.13838;32.50538
46174;BME280;31897;52.420;13.498;2023-01-25T00:10:49;103500;;;1.18134;32.59695
46174;BME280;31897;52.420;13.498;2023-01-25T00:13:51;103500;;;1.26823;32.55523
46174;BME280;31897;52.420;13.498;2023-01-25T00:16:52;103500;;;1.32023;32.51405
46174;BME280;31897;52.420;13.498;2023-01-25T00:19:53;103500;;;1.41681;32.43176
46174;BME280;31897;52.420;13.498;2023-01-25T00:22:54;103500;;;1.45396;32.36194
46174;BME280;31897;52.420;13.498;2023-01-25T00:25:56;103400;;;1.47948;32.35576
46174;BME280;31897;52.420;13.498;2023-01-25T00:28:57;103400;;;1.50435;32.29765
46174;BME280;31897;52.420;13.498;2023-01-25T00:32:01;103400;;;1.41294;32.34531
46174;BME280;31897;52.420;13.498;2023-01-25T00:35:02;103400;;;1.36707;32.40949
46174;BME280;31897;52.420;13.498;2023-01-25T00:38:05;103400;;;1.33219;32.41581
46174;BME280;31897;52.420;13.498;2023-01-25T00:41:18;103400;;;1.34252;32.50793
46174;BME280;31897;52.420;13.498;2023-01-25T00:44:19;103400;;;1.411;32.53569
46174;BME280;31897;52.420;13.498;2023-01-25T00:47:19;103400;;;1.44362;32.46595
46174;BME280;31897;52.420;13.498;2023-01-25T00:50:20;103400;;;1.46365;32.44832
46174;BME280;31897;52.420;13.498;2023-01-25T00:53:21;103400;;;1.4685;32.47132
46174;BME280;31897;52.420;13.498;2023-01-25T00:56:22;103400;;;1.48788;32.52871
46174;BME280;31897;52.420;13.498;2023-01-25T00:59:22;103400;;;1.578;32.46381
46174;BME280;31897;52.420;13.498;2023-01-25T01:02:23;103400;;;1.58672;32.44635
46174;BME280;31897;52.420;13.498;2023-01-25T01:05:24;103400;;;1.58187;32.3541
46174;BME280;31897;52.420;13.498;2023-01-25T01:08:25;103400;;;1.49627;32.40741
46174;BME280;31897;52.420;13.498;2023-01-25T01:11:26;103400;;;1.44072;32.39677
46174;BME280;31897;52.420;13.498;2023-01-25T01:14:26;103400;;;1.28373;32.50309
46174;BME280;31897;52.420;13.498;2023-01-25T01:17:27;103400;;;1.27017;32.61287
46174;BME280;31897;52.420;13.498;2023-01-25T01:20:28;103400;;;1.33219;32.58307
46174;BME280;31897;52.420;13.498;2023-01-25T01:23:29;103400;;;1.40842;32.5415
46174;BME280;31897;52.420;13.498;2023-01-25T01:26:30;103400;;;1.37385;32.63433
46174;BME280;31897;52.420;13.498;2023-01-25T01:29:31;103400;;;1.41617;32.44908
46174;BME280;31897;52.420;13.498;2023-01-25T01:32:31;103400;;;1.41391;32.48949
46174;BME280;31897;52.420;13.498;2023-01-25T01:35:32;103400;;;1.37838;32.55927
46174;BME280;31897;52.420;13.498;2023-01-25T01:38:33;103400;;;1.43393;32.59878
46174;BME280;31897;52.420;13.498;2023-01-25T01:41:34;103400;;;1.49046;32.56905
46174;BME280;31897;52.420;13.498;2023-01-25T01:44:44;103400;;;1.5696;32.49279
46174;BME280;31897;52.420;13.498;2023-01-25T01:47:45;103400;;;1.59641;32.50391
46174;BME280;31897;52.420;13.498;2023-01-25T01:50:46;103400;;;1.54699;32.51623
46174;BME280;31897;52.420;13.498;2023-01-25T01:53:49;103400;;;1.54246;32.56824
46174;BME280;31897;52.420;13.498;2023-01-25T01:56:51;103400;;;1.57864;32.53881
46174;BME280;31897;52.420;13.498;2023-01-25T01:59:55;103400;;;1.63194;32.43986
46174;BME280;31897;52.420;13.498;2023-01-25T02:02:57;103400;;;1.62483;32.4746
46174;BME280;31897;52.420;13.498;2023-01-25T02:06:00;103400;;;1.65003;32.46265
46174;BME280;31897;52.420;13.498;2023-01-25T02:09:02;103400;;;1.66359;32.38163
46174;BME280;31897;52.420;13.498;2023-01-25T02:12:03;103400;;;1.63711;32.45132
46174;BME280;31897;52.420;13.498;2023-01-25T02:15:06;103400;;;1.578;32.5042
46174;BME280;31897;52.420;13.498;2023-01-25T02:18:07;103400;;;1.53471;32.57413
46174;BME280;31897;52.420;13.498;2023-01-25T02:21:09;103400;;;1.57864;32.55613
46174;BME280;31897;52.420;13.498;2023-01-25T02:24:10;103400;;;1.62225;32.53235
46174;BME280;31897;52.420;13.498;2023-01-25T02:27:12;103400;;;1.62322;32.57851
46174;BME280;31897;52.420;13.498;2023-01-25T02:30:12;103400;;;1.65358;32.56649
46174;BME280;31897;52.420;13.498;2023-01-25T02:33:13;103400;;;1.68814;32.58903
46174;BME280;31897;52.420;13.498;2023-01-25T02:36:16;103400;;;1.75048;32.55918
46174;BME280;31897;52.420;13.498;2023-01-25T02:39:19;103400;;;1.68943;32.53706
46174;BME280;31897;52.420;13.498;2023-01-25T02:42:20;103400;;;1.62935;32.61881
46174;BME280;31897;52.420;13.498;2023-01-25T02:45:21;103400;;;1.63581;32.58408
46174;BME280;31897;52.420;13.498;2023-01-25T02:48:23;103300;;;1.7072;32.55987
46174;BME280;31897;52.420;13.498;2023-01-25T02:51:25;103300;;;1.69977;32.56576
46174;BME280;31897;52.420;13.498;2023-01-25T02:54:26;103300;;;1.68685;32.58328
46174;BME280;31897;52.420;13.498;2023-01-25T02:57:27;103300;;;1.69137;32.56012
46174;BME280;31897;52.420;13.498;2023-01-25T03:00:28;103300;;;1.70558;32.57144
46174;BME280;31897;52.420;13.498;2023-01-25T03:03:28;103300;;;1.69396;32.59471
46174;BME280;31897;52.420;13.498;2023-01-25T03:06:29;103300;;;1.6623;32.77989
46174;BME280;31897;52.420;13.498;2023-01-25T03:09:30;103300;;;1.71947;32.73862
46174;BME280;31897;52.420;13.498;2023-01-25T03:12:31;103300;;;1.66941;32.80287
46174;BME280;31897;52.420;13.498;2023-01-25T03:15:32;103300;;;1.71754;32.69824
46174;BME280;31897;52.420;13.498;2023-01-25T03:18:33;103300;;;1.72755;32.73272
46174;BME280;31897;52.420;13.498;2023-01-25T03:21:34;103300;;;1.7269;32.68655
46174;BME280;31897;52.420;13.498;2023-01-25T03:24:35;103300;;;1.75145;32.70349
46174;BME280;31897;52.420;13.498;2023-01-25T03:27:35;103300;;;1.69557;32.72744
46174;BME280;31897;52.420;13.498;2023-01-25T03:30:36;103300;;;1.71011;32.77339
46174;BME280;31897;52.420;13.498;2023-01-25T03:33:37;103300;;;1.74628;32.83633
46174;BME280;31897;52.420;13.498;2023-01-25T03:36:38;103300;;;1.76566;32.75522
46174;BME280;31897;52.420;13.498;2023-01-25T03:39:39;103300;;;1.77632;32.80124
46174;BME280;31897;52.420;13.498;2023-01-25T03:42:40;103300;;;1.78246;32.7896
46174;BME280;31897;52.420;13.498;2023-01-25T03:45:41;103300;;;1.78795;32.82993
46174;BME280;31897;52.420;13.498;2023-01-25T03:48:42;103300;;;1.78085;32.85313
46174;BME280;31897;52.420;13.498;2023-01-25T03:51:42;103300;;;1.80895;32.82384
46174;BME280;31897;52.420;13.498;2023-01-25T03:54:43;103300;;;1.84513;32.80019
46174;BME280;31897;52.420;13.498;2023-01-25T03:57:44;103300;;;1.82607;32.74852
46174;BME280;31897;52.420;13.498;2023-01-25T04:00:45;103300;;;1.72077;32.84827
46174;BME280;31897;52.420;13.498;2023-01-25T04:03:45;103300;;;1.69073;32.88912
46174;BME280;31897;52.420;13.498;2023-01-25T04:06:46;103300;;;1.651;32.97051
46174;BME280;31897;52.420;13.498;2023-01-25T04:09:47;103300;;;1.69396;33.0449
46174;BME280;31897;52.420;13.498;2023-01-25T04:12:48;103300;;;1.7282;32.99822
46174;BME280;31897;52.420;13.498;2023-01-25T04:15:49;103300;;;1.76114;32.99196
46174;BME280;31897;52.420;13.498;2023-01-25T04:18:50;103300;;;1.74855;32.96906
46174;BME280;31897;52.420;13.498;2023-01-25T04:21:51;103300;;;1.72981;32.97511
46174;BME280;31897;52.420;13.498;2023-01-25T04:24:51;103300;;;1.75759;33.0786
46174;BME280;31897;52.420;13.498;2023-01-25T04:27:52;103200;;;1.72626;33.15409
46174;BME280;31897;52.420;13.498;2023-01-25T04:30:53;103200;;;1.79926;33.18767
46174;BME280;31897;52.420;13.498;2023-01-25T04:33:55;103200;;;1.82704;33.14108
46174;BME280;31897;52.420;13.498;2023-01-25T04:36:55;103200;;;1.71011;33.18318
46174;BME280;31897;52.420;13.498;2023-01-25T04:39:56;103200;;;1.64938;33.311
46174;BME280;31897;52.420;13.498;2023-01-25T04:42:57;103200;;;1.6216;33.4614
46174;BME280;31897;52.420;13.498;2023-01-25T04:45:59;103200;;;1.68071;33.44328
46174;BME280;31897;52.420;13.498;2023-01-25T04:49:00;103200;;;1.71398;33.42551
46174;BME280;31897;52.420;13.498;2023-01-25T04:52:01;103200;;;1.74112;33.40205
46174;BME280;31897;52.420;13.498;2023-01-25T04:55:02;103200;;;1.7353;33.39636
46174;BME280;31897;52.420;13.498;2023-01-25T04:58:03;103200;;;1.73595;33.4656
46174;BME280;31897;52.420;13.498;2023-01-25T05:01:04;103200;;;1.73821;33.48866
46174;BME280;31897;52.420;13.498;2023-01-25T05:04:05;103200;;;1.69331;33.52389
46174;BME280;31897;52.420;13.498;2023-01-25T05:07:06;103200;;;1.65939;33.62821
46174;BME280;31897;52.420;13.498;2023-01-25T05:10:07;103200;;;1.67167;33.5992
46174;BME280;31897;52.420;13.498;2023-01-25T05:13:08;103200;;;1.61611;33.74994
46174;BME280;31897;52.420;13.498;2023-01-25T05:16:09;103200;;;1.66973;33.76078
46174;BME280;31897;52.420;13.498;2023-01-25T05:19:10;103200;;;1.59608;33.83097
46174;BME280;31897;52.420;13.498;2023-01-25T05:22:11;103200;;;1.52179;33.92997
46174;BME280;31897;52.420;13.498;2023-01-25T05:25:13;103200;;;1.55991;33.97563
46174;BME280;31897;52.420;13.498;2023-01-25T05:28:13;103200;;;1.61159;34.08459
46174;BME280;31897;52.420;13.498;2023-01-25T05:31:14;103200;;;1.65843;33.96286
46174;BME280;31897;52.420;13.498;2023-01-25T05:34:15;103200;;;1.64131;34.02077
46174;BME280;31897;52.420;13.498;2023-01-25T05:37:21;103200;;;1.68524;33.96252
46174;BME280;31897;52.420;13.498;2023-01-25T05:40:21;103200;;;1.69783;33.8989
46174;BME280;31897;52.420;13.498;2023-01-25T05:43:22;103200;;;1.65746;33.97441
46174;BME280;31897;52.420;13.498;2023-01-25T05:46:23;103200;;;1.66747;34.05506
46174;BME280;31897;52.420;13.498;2023-01-25T05:49:24;103200;;;1.74144;34.07145
46174;BME280;31897;52.420;13.498;2023-01-25T05:52:24;103200;;;1.78666;34.00164
46174;BME280;31897;52.420;13.498;2023-01-25T05:55:25;103200;;;1.78795;34.08819
46174;BME280;31897;52.420;13.498;2023-01-25T05:58:26;103200;;;1.797;33.93803
46174;BME280;31897;52.420;13.498;2023-01-25T06:01:27;103200;;;1.76663;33.91533
46174;BME280;31897;52.420;13.498;2023-01-25T06:04:28;103200;;;1.73982;34.00223
46174;BME280;31897;52.420;13.498;2023-01-25T06:07:32;103200;;;1.74047;34.04261
46174;BME280;31897;52.420;13.498;2023-01-25T06:10:33;103200;;;1.73078;34.01965
46174;BME280;31897;52.420;13.498;2023-01-25T06:13:34;103200;;;1.66101;34.0436
46174;BME280;31897;52.420;13.498;2023-01-25T06:16:35;103200;;;1.63937;34.04387
46174;BME280;31897;52.420;13.498;2023-01-25T06:19:35;103200;;;1.60287;34.11354
46174;BME280;31897;52.420;13.498;2023-01-25T06:22:36;103200;;;1.56152;34.14865
46174;BME280;31897;52.420;13.498;2023-01-25T06:25:37;103200;;;1.61547;34.24029
46174;BME280;31897;52.420;13.498;2023-01-25T06:28:38;103200;;;1.59189;34.18289
46174;BME280;31897;52.420;13.498;2023-01-25T06:31:38;103200;;;1.56475;34.19475
46174;BME280;31897;52.420;13.498;2023-01-25T06:34:39;103200;;;1.54182;34.2527
46174;BME280;31897;52.420;13.498;2023-01-25T06:37:40;103200;;;1.52502;34.25866
46174;BME280;31897;52.420;13.498;2023-01-25T06:40:41;103200;;;1.48885;34.31675
46174;BME280;31897;52.420;13.498;2023-01-25T06:43:41;103200;;;1.4798;34.35146
46174;BME280;31897;52.420;13.498;2023-01-25T06:46:42;103200;;;1.4714;34.27083
46174;BME280;31897;52.420;13.498;2023-01-25T06:49:43;103200;;;1.42747;34.53079
46174;BME280;31897;52.420;13.498;2023-01-25T06:52:50;103200;;;1.48594;34.55897
46174;BME280;31897;52.420;13.498;2023-01-25T06:55:55;103200;;;1.44621;34.50752
46174;BME280;31897;52.420;13.498;2023-01-25T06:58:56;103200;;;1.43232;34.51344
46174;BME280;31897;52.420;13.498;2023-01-25T07:01:57;103200;;;1.44427;34.55367
46174;BME280;31897;52.420;13.498;2023-01-25T07:04:57;103100;;;1.41391;34.48482
46174;BME280;31897;52.420;13.498;2023-01-25T07:07:58;103100;;;1.25143;34.78631
46174;BME280;31897;52.420;13.498;2023-01-25T07:11:00;103100;;;1.2046;34.84442
46174;BME280;31897;52.420;13.498;2023-01-25T07:14:02;103100;;;1.15421;34.88527
46174;BME280;31897;52.420;13.498;2023-01-25T07:17:02;103100;;;1.17585;34.89081
46174;BME280;31897;52.420;13.498;2023-01-25T07:20:03;103100;;;1.13354;34.93733
46174;BME280;31897;52.420;13.498;2023-01-25T07:23:04;103100;;;1.12417;34.93166
46174;BME280;31897;52.420;13.498;2023-01-25T07:26:05;103100;;;1.11512;35.06424
46174;BME280;31897;52.420;13.498;2023-01-25T07:29:07;103100;;;1.12417;35.12175
46174;BME280;31897;52.420;13.498;2023-01-25T07:32:10;103100;;;1.2088;35.07484
46174;BME280;31897;52.420;13.498;2023-01-25T07:35:11;103100;;;1.18522;35.00594
46174;BME280;31897;52.420;13.498;2023-01-25T07:38:12;103100;;;1.119;35.15636
46174;BME280;31897;52.420;13.498;2023-01-25T07:41:12;103100;;;1.05246;35.13396
46174;BME280;31897;52.420;13.498;2023-01-25T07:44:13;103100;;;1.01273;35.18042
46174;BME280;31897;52.420;13.498;2023-01-25T07:47:14;103100;;;1.01822;35.28978
46174;BME280;31897;52.420;13.498;2023-01-25T07:50:15;103100;;;0.99335;35.31304
46174;BME280;31897;52.420;13.498;2023-01-25T07:53:16;103100;;;0.93295;35.4345
46174;BME280;31897;52.420;13.498;2023-01-25T07:56:17;103100;;;0.98883;35.5434
46174;BME280;31897;52.420;13.498;2023-01-25T07:59:18;103100;;;1.09316;35.47914
46174;BME280;31897;52.420;13.498;2023-01-25T08:02:18;103100;;;1.119;35.39252
46174;BME280;31897;52.420;13.498;2023-01-25T08:05:19;103100;;;1.18393;35.41497
46174;BME280;31897;52.420;13.498;2023-01-25T08:08:20;103100;;;1.19685;35.40334
46174;BME280;31897;52.420;13.498;2023-01-25T08:11:22;103100;;;1.2004;35.30537
46174;BME280;31897;52.420;13.498;2023-01-25T08:14:23;103100;;;1.14969;35.2828
46174;BME280;31897;52.420;13.498;2023-01-25T08:17:24;103100;;;1.05601;35.31822
46174;BME280;31897;52.420;13.498;2023-01-25T08:20:25;103100;;;1.08089;35.51957
46174;BME280;31897;52.420;13.498;2023-01-25T08:23:26;103100;;;1.12998;35.4385
46174;BME280;31897;52.420;13.498;2023-01-25T08:26:27;103100;;;1.17068;35.32293
46174;BME280;31897;52.420;13.498;2023-01-25T08:29:28;103100;;;1.17456;35.40354
46174;BME280;31897;52.420;13.498;2023-01-25T08:32:28;103100;;;1.12643;35.28878
46174;BME280;31897;52.420;13.498;2023-01-25T08:35:29;103100;;;1.09122;35.46188
46174;BME280;31897;52.420;13.498;2023-01-25T08:38:30;103100;;;1.02824;35.45093
46174;BME280;31897;52.420;13.498;2023-01-25T08:41:32;103100;;;1.01693;35.53164
46174;BME280;31897;52.420;13.498;2023-01-25T08:44:33;103100;;;0.99755;35.61818
46174;BME280;31897;52.420;13.498;2023-01-25T08:47:34;103100;;;0.90097;35.5787
46174;BME280;31897;52.420;13.498;2023-01-25T08:50:35;103100;;;0.8564;35.72873
46174;BME280;31897;52.420;13.498;2023-01-25T08:53:36;103100;;;0.77467;35.75242
46174;BME280;31897;52.420;13.498;2023-01-25T08:56:37;103100;;;0.7498;35.81016
46174;BME280;31897;52.420;13.498;2023-01-25T08:59:38;103100;;;0.75982;35.90215
46174;BME280;31897;52.420;13.498;2023-01-25T09:02:39;103100;;;0.71201;35.85073
46174;BME280;31897;52.420;13.498;2023-01-25T09:05:40;103100;;;0.75497;35.95972
46174;BME280;31897;52.420;13.498;2023-01-25T09:08:41;103100;;;0.75529;35.91944
46174;BME280;31897;52.420;13.498;2023-01-25T09:11:42;103100;;;0.83185;36.03395
46174;BME280;31897;52.420;13.498;2023-01-25T09:14:43;103100;;;0.91518;35.95274
46174;BME280;31897;52.420;13.498;2023-01-25T09:17:43;103100;;;0.94748;35.90644
46174;BME280;31897;52.420;13.498;2023-01-25T09:20:44;103100;;;1.02404;35.80796
46174;BME280;31897;52.420;13.498;2023-01-25T09:23:46;103100;;;1.07281;35.6924
46174;BME280;31897;52.420;13.498;2023-01-25T09:26:48;103100;;;1.11093;35.82454
46174;BME280;31897;52.420;13.498;2023-01-25T09:29:48;103100;;;1.16713;35.58793
46174;BME280;31897;52.420;13.498;2023-01-25T09:32:49;103100;;;1.17779;35.6224
46174;BME280;31897;52.420;13.498;2023-01-25T09:35:50;103100;;;1.18393;35.52442
46174;BME280;31897;52.420;13.498;2023-01-25T09:38:51;103100;;;1.07023;35.42752
46174;BME280;31897;52.420;13.498;2023-01-25T09:41:58;103100;;;0.98205;35.54922
46174;BME280;31897;52.420;13.498;2023-01-25T09:45:06;103100;;;0.85026;35.70576
46174;BME280;31897;52.420;13.498;2023-01-25T09:48:13;103000;;;0.82926;35.79802
46174;BME280;31897;52.420;13.498;2023-01-25T09:51:17;103000;;;0.848;35.81513
46174;BME280;31897;52.420;13.498;2023-01-25T09:54:22;103000;;;0.90355;35.88952
46174;BME280;31897;52.420;13.498;2023-01-25T09:57:24;103000;;;0.9084;35.79738
46174;BME280;31897;52.420;13.498;2023-01-25T10:00:27;103000;;;1.00046;35.81391
46174;BME280;31897;52.420;13.498;2023-01-25T10:03:30;103000;;;0.99077;35.72763
46174;BME280;31897;52.420;13.498;2023-01-25T10:06:36;103000;;;0.98851;35.67008
46174;BME280;31897;52.420;13.498;2023-01-25T10:09:38;103000;;;0.94199;35.67622
46174;BME280;31897;52.420;13.498;2023-01-25T10:12:41;103000;;;0.94587;35.72224
46174;BME280;31897;52.420;13.498;2023-01-25T10:15:43;103000;;;0.93876;35.66473
46174;BME280;31897;52.420;13.498;2023-01-25T10:18:49;103000;;;0.84961;35.66547
46174;BME280;31897;52.420;13.498;2023-01-25T10:21:54;103000;;;0.82539;35.82682
46174;BME280;31897;52.420;13.498;2023-01-25T10:24:59;103000;;;0.87674;35.82066
46174;BME280;31897;52.420;13.498;2023-01-25T10:28:06;103000;;;0.92326;35.79726
46174;BME280;31897;52.420;13.498;2023-01-25T10:31:13;103000;;;0.99529;35.77365
46174;BME280;31897;52.420;13.498;2023-01-25T10:34:16;103000;;;0.98366;35.71042
46174;BME280;31897;52.420;13.498;2023-01-25T10:37:19;103000;;;1.05117;35.70986
46174;BME280;31897;52.420;13.498;2023-01-25T10:40:21;103000;;;0.86738;35.76318
46174;BME280;31897;52.420;13.498;2023-01-25T10:43:23;103000;;;0.90259;35.84348
46174;BME280;31897;52.420;13.498;2023-01-25T10:46:24;103000;;;0.96202;35.76816
46174;BME280;31897;52.420;13.498;2023-01-25T10:49:26;103000;;;1.06344;35.86523
46174;BME280;31897;52.420;13.498;2023-01-25T10:52:29;103000;;;1.21267;35.69123
46174;BME280;31897;52.420;13.498;2023-01-25T10:55:30;103000;;;1.29569;35.59258
46174;BME280;31897;52.420;13.498;2023-01-25T10:58:31;103000;;;1.25305;35.63328
46174;BME280;31897;52.420;13.498;2023-01-25T11:01:34;103000;;;1.20686;35.5127
46174;BME280;31897;52.420;13.498;2023-01-25T11:04:35;103000;;;1.1639;35.67436
46174;BME280;31897;52.420;13.498;2023-01-25T11:07:36;103000;;;1.23012;35.67956
46174;BME280;31897;52.420;13.498;2023-01-25T11:10:36;103000;;;1.17973;35.47838
46174;BME280;31897;52.420;13.498;2023-01-25T11:13:38;102900;;;1.11642;35.60565
46174;BME280;31897;52.420;13.498;2023-01-25T11:16:42;102900;;;1.17036;35.70886
46174;BME280;31897;52.420;13.498;2023-01-25T11:19:44;102900;;;1.13515;35.64004
46174;BME280;31897;52.420;13.498;2023-01-25T11:22:49;102900;;;1.10737;35.69211
46174;BME280;31897;52.420;13.498;2023-01-25T11:25:50;102900;;;1.10253;35.72671
46174;BME280;31897;52.420;13.498;2023-01-25T11:29:04;102900;;;1.1555;35.77234
46174;BME280;31897;52.420;13.498;2023-01-25T11:32:12;102900;;;1.23722;35.72558
46174;BME280;31897;52.420;13.498;2023-01-25T11:35:15;102900;;;1.21526;35.61056
46174;BME280;31897;52.420;13.498;2023-01-25T11:38:18;102900;;;1.15841;35.67441
46174;BME280;31897;52.420;13.498;2023-01-25T11:41:23;102900;;;1.04858;35.81928
46174;BME280;31897;52.420;13.498;2023-01-25T11:44:36;102900;;;0.98624;35.86584
46174;BME280;31897;52.420;13.498;2023-01-25T11:47:45;102900;;;1.09768;35.96861
46174;BME280;31897;52.420;13.498;2023-01-25T11:50:51;102900;;;1.16519;35.88746
46174;BME280;31897;52.420;13.498;2023-01-25T11:53:59;102900;;;1.1723;35.801
46174;BME280;31897;52.420;13.498;2023-01-25T11:57:05;102800;;;1.11739;35.77266
46174;BME280;31897;52.420;13.498;2023-01-25T12:00:16;102800;;;1.10576;35.91672
46174;BME280;31897;52.420;13.498;2023-01-25T12:03:26;102800;;;1.10285;35.96857
46174;BME280;31897;52.420;13.498;2023-01-25T12:06:34;102800;;;1.09058;36.10686
46174;BME280;31897;52.420;13.498;2023-01-25T12:09:42;102800;;;1.00885;36.03262
46174;BME280;31897;52.420;13.498;2023-01-25T12:12:48;102800;;;0.96783;36.05596
46174;BME280;31897;52.420;13.498;2023-01-25T12:15:54;102800;;;0.90646;36.21182
46174;BME280;31897;52.420;13.498;2023-01-25T12:19:05;102800;;;0.89645;36.29822
46174;BME280;31897;52.420;13.498;2023-01-25T12:22:18;102800;;;0.83572;36.19506
46174;BME280;31897;52.420;13.498;2023-01-25T12:25:24;102800;;;0.86609;36.33871
46174;BME280;31897;52.420;13.498;2023-01-25T12:28:30;102800;;;0.96331;36.31503
46174;BME280;31897;52.420;13.498;2023-01-25T12:31:35;102800;;;0.96073;36.28627
46174;BME280;31897;52.420;13.498;2023-01-25T12:34:38;102800;;;0.9533;36.28632
46174;BME280;31897;52.420;13.498;2023-01-25T12:37:40;102800;;;1.01208;36.32045
46174;BME280;31897;52.420;13.498;2023-01-25T12:40:45;102800;;;0.86544;36.27542
46174;BME280;31897;52.420;13.498;2023-01-25T12:43:50;102800;;;0.80891;36.41966
46174;BME280;31897;52.420;13.498;2023-01-25T12:46:55;102800;;;0.74722;36.49485
46174;BME280;31897;52.420;13.498;2023-01-25T12:50:00;102800;;;0.78533;36.5694
46174;BME280;31897;52.420;13.498;2023-01-25T12:53:04;102800;;;0.8115;36.36785
46174;BME280;31897;52.420;13.498;2023-01-25T12:56:07;102700;;;0.8312;36.408
46174;BME280;31897;52.420;13.498;2023-01-25T12:59:11;102700;;;0.83766;36.31589
46174;BME280;31897;52.420;13.498;2023-01-25T13:02:24;102700;;;0.83572;36.26987
46174;BME280;31897;52.420;13.498;2023-01-25T13:05:28;102700;;;0.80988;36.28155
46174;BME280;31897;52.420;13.498;2023-01-25T13:08:35;102700;;;0.79793;36.3737
46174;BME280;31897;52.420;13.498;2023-01-25T13:11:37;102700;;;0.83701;36.33316
46174;BME280;31897;52.420;13.498;2023-01-25T13:14:39;102700;;;0.7175;36.2074
46174;BME280;31897;52.420;13.498;2023-01-25T13:17:40;102700;;;0.69683;36.43765
46174;BME280;31897;52.420;13.498;2023-01-25T13:20:46;102700;;;0.80439;36.5175
46174;BME280;31897;52.420;13.498;2023-01-25T13:23:47;102700;;;0.79987;36.25861
46174;BME280;31897;52.420;13.498;2023-01-25T13:27:22;102700;;;0.70458;36.25351
46174;BME280;31897;52.420;13.498;2023-01-25T13:30:26;102700;;;0.64967;36.51848
46174;BME280;31897;52.420;13.498;2023-01-25T13:33:34;102700;;;0.62125;36.43814
46174;BME280;31897;52.420;13.498;2023-01-25T13:36:36;102700;;;0.6332;36.62785
46174;BME280;31897;52.420;13.498;2023-01-25T13:39:45;102700;;;0.64903;36.66802
46174;BME280;31897;52.420;13.498;2023-01-25T13:42:56;102700;;;0.79632;36.43125
46174;BME280;31897;52.420;13.498;2023-01-25T13:45:57;102700;;;0.83701;36.41372
46174;BME280;31897;52.420;13.498;2023-01-25T13:49:00;102700;;;0.85058;36.4424
46174;BME280;31897;52.420;13.498;2023-01-25T13:52:03;102700;;;0.90485;36.4478
46174;BME280;31897;52.420;13.498;2023-01-25T13:55:14;102700;;;0.94845;36.54536
46174;BME280;31897;52.420;13.498;2023-01-25T13:58:17;102700;;;0.98721;36.26306
46174;BME280;31897;52.420;13.498;2023-01-25T14:01:18;102700;;;0.88094;36.3271
46174;BME280;31897;52.420;13.498;2023-01-25T14:04:19;102700;;;0.8635;36.51137
46174;BME280;31897;52.420;13.498;2023-01-25T14:07:27;102700;;;0.86286;36.45958
46174;BME280;31897;52.420;13.498;2023-01-25T14:10:29;102700;;;0.82829;36.59215
46174;BME280;31897;52.420;13.498;2023-01-25T14:13:31;102700;;;0.87707;36.5343
46174;BME280;31897;52.420;13.498;2023-01-25T14:16:32;102700;;;0.85284;36.51719
46174;BME280;31897;52.420;13.498;2023-01-25T14:19:34;102600;;;0.8551;36.64377
46174;BME280;31897;52.420;13.498;2023-01-25T14:22:35;102600;;;0.95394;36.49352
46174;BME280;31897;52.420;13.498;2023-01-25T14:25:38;102600;;;0.86673;36.59191
46174;BME280;31897;52.420;13.498;2023-01-25T14:28:42;102600;;;0.80956;36.40239
46174;BME280;31897;52.420;13.498;2023-01-25T14:31:45;102600;;;0.72622;36.61004
46174;BME280;31897;52.420;13.498;2023-01-25T14:34:46;102600;;;0.68133;36.61031
46174;BME280;31897;52.420;13.498;2023-01-25T14:37:47;102600;;;0.66582;36.65066
46174;BME280;31897;52.420;13.498;2023-01-25T14:40:48;102600;;;0.59573;36.76609
46174;BME280;31897;52.420;13.498;2023-01-25T14:43:52;102600;;;0.54243;36.68015
46174;BME280;31897;52.420;13.498;2023-01-25T14:47:18;102600;;;0.50949;36.80683
46174;BME280;31897;52.420;13.498;2023-01-25T14:50:29;102600;;;0.57796;36.9732
46174;BME280;31897;52.420;13.498;2023-01-25T14:53:30;102600;;;0.6164;36.78323
46174;BME280;31897;52.420;13.498;2023-01-25T14:56:32;102600;;;0.61123;36.88677
46174;BME280;31897;52.420;13.498;2023-01-25T14:59:34;102600;;;0.60962;36.85227
46174;BME280;31897;52.420;13.498;2023-01-25T15:02:37;102600;;;0.58507;36.99041
46174;BME280;31897;52.420;13.498;2023-01-25T15:05:38;102600;;;0.60187;36.95582
46174;BME280;31897;52.420;13.498;2023-01-25T15:08:44;102600;;;0.62868;36.89243
46174;BME280;31897;52.420;13.498;2023-01-25T15:11:45;102600;;;0.62189;36.97872
46174;BME280;31897;52.420;13.498;2023-01-25T15:14:46;102600;;;0.72461;36.97243
46174;BME280;31897;52.420;13.498;2023-01-25T15:17:47;102600;;;0.80794;36.78789
46174;BME280;31897;52.420;13.498;2023-01-25T15:20:48;102600;;;0.73236;36.78832